Time;durP1;ratioP1;P1;durP2;ratioP2;P2;SDS_P1;SDS_P2;PMS_P1;PMS_P2;Temp;Humidity;BMP_temperature;BMP_pressure;BME280_temperature;BME280_humidity;BME280_pressure;Samples;Min_cycle;Max_cycle;Signal;HPM_P1;HPM_P2
2022/02/05 00:01:31;;;;;;;13.00;11.87;;;3.10;99.90;;;;;;5008405;28;20172;-67
2022/02/05 00:04:02;;;;;;;13.30;12.20;;;3.10;99.90;;;;;;5013814;28;20188;-67
2022/02/05 00:06:33;;;;;;;13.87;12.47;;;3.10;99.90;;;;;;4998285;28;20177;-67
2022/02/05 00:09:12;;;;;;;14.13;13.03;;;3.10;99.90;;;;;;4993845;28;20542;-67
2022/02/05 00:20:22;;;;;;;11.43;10.57;;;3.30;99.90;;;;;;4993526;28;20698;-65
2022/02/05 00:39:18;;;;;;;11.93;10.80;;;3.40;99.90;;;;;;4999733;28;20231;-66
2022/02/05 00:41:51;;;;;;;12.47;11.47;;;3.40;99.90;;;;;;5012769;28;20176;-68
2022/02/05 00:44:17;;;;;;;13.63;11.70;;;3.40;99.90;;;;;;5002428;28;20256;-67
2022/02/05 00:46:44;;;;;;;12.87;11.70;;;3.30;99.90;;;;;;4993082;28;20272;-67
2022/02/05 00:49:09;;;;;;;12.33;11.20;;;3.30;99.90;;;;;;5001254;28;20589;-66
2022/02/05 00:54:14;;;;;;;13.17;10.27;;;3.30;99.90;;;;;;4992547;28;20204;-68
2022/02/05 00:59:12;;;;;;;10.93;9.90;;;3.30;99.90;;;;;;5012585;28;20204;-67
2022/02/05 01:01:37;;;;;;;11.60;10.53;;;3.20;99.90;;;;;;5009367;28;20522;-67
2022/02/05 01:04:04;;;;;;;11.07;10.10;;;3.20;99.90;;;;;;4992527;28;20201;-66
2022/02/05 01:06:30;;;;;;;10.37;9.63;;;3.20;99.90;;;;;;4994074;28;20161;-67
2022/02/05 01:08:56;;;;;;;10.70;9.87;;;3.20;99.90;;;;;;5012335;28;20164;-67
2022/02/05 01:11:22;;;;;;;11.57;9.37;;;3.10;99.90;;;;;;5008566;28;20548;-67
2022/02/05 01:13:48;;;;;;;9.70;9.00;;;3.10;99.90;;;;;;5011977;28;20188;-66
2022/02/05 01:18:41;;;;;;;9.40;8.83;;;3.10;99.90;;;;;;4993211;28;20231;-68
2022/02/05 01:21:19;;;;;;;9.90;9.00;;;3.10;99.90;;;;;;4994282;28;20173;-68
2022/02/05 01:23:53;;;;;;;10.70;9.80;;;3.10;99.90;;;;;;4991420;28;20219;-67
2022/02/05 01:26:27;;;;;;;10.87;9.87;;;3.10;99.90;;;;;;5007271;28;20187;-67
2022/02/05 01:29:00;;;;;;;10.90;9.90;;;3.20;99.90;;;;;;5012594;28;20225;-67
2022/02/05 01:31:31;;;;;;;12.00;10.20;;;3.10;99.90;;;;;;4997352;28;20180;-67
2022/02/05 01:34:25;;;;;;;11.67;10.97;;;3.10;99.90;;;;;;4992008;28;20275;-68
2022/02/05 01:50:41;;;;;;;10.57;9.77;;;3.10;99.90;;;;;;5011809;28;20210;-66
2022/02/05 02:14:35;;;;;;;10.77;9.93;;;3.20;99.90;;;;;;4991641;28;20173;-67
2022/02/05 02:30:24;;;;;;;12.00;11.10;;;3.20;99.90;;;;;;5000084;28;20180;-67
2022/02/05 02:32:59;;;;;;;10.47;9.87;;;3.20;99.90;;;;;;5014759;28;20662;-67
2022/02/05 02:35:27;;;;;;;10.27;9.57;;;3.20;99.90;;;;;;5007398;28;20617;-67
2022/02/05 02:37:59;;;;;;;11.80;10.90;;;3.20;99.90;;;;;;4995457;28;20207;-67
2022/02/05 02:43:00;;;;;;;16.50;15.27;;;3.20;99.90;;;;;;5014402;28;20693;-67
2022/02/05 02:45:26;;;;;;;14.47;13.70;;;3.20;99.90;;;;;;4995383;28;20642;-67
2022/02/05 02:47:51;;;;;;;14.50;13.47;;;3.10;99.90;;;;;;4995268;28;20188;-66
2022/02/05 02:58:22;;;;;;;11.50;10.30;;;3.20;99.90;;;;;;4995064;28;20263;-67
2022/02/05 03:00:54;;;;;;;10.73;10.10;;;3.10;99.90;;;;;;5014494;28;20172;-67
2022/02/05 03:03:19;;;;;;;10.50;9.70;;;3.10;99.90;;;;;;5014002;28;20669;-66
2022/02/05 03:05:45;;;;;;;11.33;10.43;;;3.10;99.90;;;;;;4995083;28;20184;-67
2022/02/05 03:08:10;;;;;;;12.40;9.90;;;3.10;99.90;;;;;;4993587;28;20184;-67
2022/02/05 03:10:36;;;;;;;11.57;10.60;;;3.10;99.90;;;;;;5012098;28;20208;-67
2022/02/05 03:13:02;;;;;;;15.73;10.97;;;3.10;99.90;;;;;;4999772;28;20572;-66
2022/02/05 03:15:36;;;;;;;11.43;10.43;;;3.10;99.90;;;;;;4994705;28;20169;-67
2022/02/05 03:18:05;;;;;;;10.67;9.97;;;3.10;99.90;;;;;;5007376;28;20192;-66
2022/02/05 03:20:31;;;;;;;11.27;10.17;;;3.20;99.90;;;;;;5014207;28;20168;-67
2022/02/05 03:23:00;;;;;;;16.97;9.60;;;3.20;99.90;;;;;;5001722;28;20250;-68
2022/02/05 03:25:29;;;;;;;9.57;9.03;;;3.30;99.90;;;;;;4994761;28;20172;-67
2022/02/05 03:27:55;;;;;;;9.00;8.30;;;3.20;99.90;;;;;;5005141;28;20183;-67
2022/02/05 03:30:20;;;;;;;10.03;9.13;;;3.30;99.90;;;;;;5009266;28;20662;-67
2022/02/05 03:32:46;;;;;;;10.10;9.20;;;3.30;99.90;;;;;;4993544;28;20193;-65
2022/02/05 03:35:12;;;;;;;12.17;11.10;;;3.30;99.90;;;;;;4997002;28;20181;-67
2022/02/05 03:37:37;;;;;;;12.27;11.37;;;3.30;99.90;;;;;;5014130;28;20164;-68
2022/02/05 03:40:03;;;;;;;11.97;11.17;;;3.30;99.90;;;;;;5013191;28;20204;-66
2022/02/05 03:42:29;;;;;;;12.20;11.43;;;3.20;99.90;;;;;;4993954;28;20251;-66
2022/02/05 03:44:55;;;;;;;13.77;12.17;;;3.30;99.90;;;;;;4993954;28;20177;-66
2022/02/05 03:47:20;;;;;;;11.30;10.70;;;3.30;99.90;;;;;;5012833;28;20674;-67
2022/02/05 03:49:46;;;;;;;13.03;10.07;;;3.30;99.90;;;;;;5013585;28;20172;-66
2022/02/05 03:52:12;;;;;;;10.07;9.37;;;3.30;99.90;;;;;;4996586;28;20625;-66
2022/02/05 03:54:37;;;;;;;11.40;10.47;;;3.30;99.90;;;;;;4993884;28;20665;-66
2022/02/05 03:57:03;;;;;;;11.00;9.87;;;3.20;99.90;;;;;;5008061;28;20188;-67
2022/02/05 03:59:29;;;;;;;12.20;10.00;;;3.20;99.90;;;;;;5012453;28;20553;-66
2022/02/05 04:01:55;;;;;;;10.97;9.90;;;3.20;99.90;;;;;;4997563;28;20181;-66
2022/02/05 04:04:22;;;;;;;10.27;8.73;;;3.20;99.90;;;;;;5003146;28;20262;-66
2022/02/05 04:06:47;;;;;;;8.67;8.13;;;3.20;99.90;;;;;;5013545;28;20171;-65
2022/02/05 04:09:21;;;;;;;8.30;7.70;;;3.30;99.90;;;;;;5004946;28;20542;-66
2022/02/05 04:17:00;;;;;;;11.03;9.73;;;3.20;99.90;;;;;;5013039;28;20602;-66
2022/02/05 04:19:26;;;;;;;10.07;9.17;;;3.20;99.90;;;;;;5004141;28;20204;-66
2022/02/05 04:21:52;;;;;;;14.90;9.67;;;3.20;99.90;;;;;;4993282;28;20191;-66
2022/02/05 04:24:18;;;;;;;10.90;8.70;;;3.10;99.90;;;;;;4999697;28;20172;-67
2022/02/05 04:26:44;;;;;;;14.57;11.13;;;3.20;99.90;;;;;;5011441;28;20172;-65
2022/02/05 04:29:11;;;;;;;10.83;9.87;;;3.10;99.90;;;;;;5007667;28;20653;-66
2022/02/05 04:31:38;;;;;;;9.00;8.37;;;3.10;99.90;;;;;;4993880;28;20176;-67
2022/02/05 04:34:04;;;;;;;11.67;10.80;;;3.20;99.90;;;;;;5012139;28;20548;-66
2022/02/05 04:36:31;;;;;;;10.40;9.67;;;3.20;99.90;;;;;;5012586;28;20180;-66
2022/02/05 04:39:02;;;;;;;11.60;10.60;;;3.30;99.90;;;;;;4991660;28;20282;-66
2022/02/05 04:41:37;;;;;;;11.43;10.30;;;3.30;99.90;;;;;;4993152;28;20169;-66
2022/02/05 04:44:30;;;;;;;13.30;9.40;;;3.30;99.90;;;;;;5011845;28;20549;-65
2022/02/05 04:58:08;;;;;;;8.00;7.33;;;3.20;99.90;;;;;;5005624;28;20176;-65
2022/02/05 05:00:57;;;;;;;13.83;8.63;;;3.20;99.90;;;;;;4999196;28;20284;-65
2022/02/05 05:03:38;;;;;;;8.57;7.77;;;3.30;99.90;;;;;;5011890;28;20194;-67
2022/02/05 05:21:39;;;;;;;9.80;9.07;;;3.30;99.90;;;;;;4992510;28;20169;-67
2022/02/05 05:24:05;;;;;;;8.57;7.80;;;3.30;99.90;;;;;;4997876;28;20573;-66
2022/02/05 05:26:30;;;;;;;8.37;7.77;;;3.30;99.90;;;;;;5011961;28;20176;-66
2022/02/05 05:28:56;;;;;;;9.03;8.30;;;3.40;99.90;;;;;;5010122;28;20187;-66
2022/02/05 05:31:22;;;;;;;8.53;8.10;;;3.30;99.90;;;;;;5011704;28;20542;-66
2022/02/05 05:33:47;;;;;;;9.50;8.03;;;3.30;99.90;;;;;;5006137;28;20542;-66
2022/02/05 05:36:13;;;;;;;8.53;7.80;;;3.30;99.90;;;;;;4992150;28;20169;-66
2022/02/05 05:38:38;;;;;;;7.87;7.27;;;3.30;99.90;;;;;;4995025;28;20607;-67
2022/02/05 05:41:04;;;;;;;8.70;8.10;;;3.30;99.90;;;;;;5011631;28;20175;-67
2022/02/05 05:43:53;;;;;;;8.13;7.50;;;3.30;99.90;;;;;;5009921;28;20242;-67
2022/02/05 05:46:31;;;;;;;8.47;7.80;;;3.20;99.90;;;;;;4973215;28;20183;-66
2022/02/05 05:49:10;;;;;;;8.67;7.90;;;3.30;99.90;;;;;;4980993;28;20215;-65
2022/02/05 05:51:35;;;;;;;8.60;8.00;;;3.30;99.90;;;;;;5011728;28;20168;-66
2022/02/05 05:54:01;;;;;;;8.97;8.17;;;3.30;99.90;;;;;;5006987;28;20209;-67
2022/02/05 05:56:27;;;;;;;9.00;8.13;;;3.30;99.90;;;;;;4996273;28;20175;-67
2022/02/05 05:58:52;;;;;;;8.43;7.73;;;3.30;99.90;;;;;;5015566;28;20711;-66
2022/02/05 06:01:18;;;;;;;8.20;7.70;;;3.30;99.90;;;;;;5014420;28;20172;-66
2022/02/05 06:03:44;;;;;;;9.93;7.80;;;3.30;99.90;;;;;;4996956;28;20205;-66
2022/02/05 06:06:09;;;;;;;7.03;6.73;;;3.30;99.90;;;;;;4995722;28;20208;-65
2022/02/05 06:08:35;;;;;;;8.80;8.10;;;3.40;99.90;;;;;;5011844;28;20192;-66
2022/02/05 06:11:00;;;;;;;9.77;8.80;;;3.50;99.90;;;;;;5015278;28;20590;-67
2022/02/05 06:13:27;;;;;;;8.83;8.13;;;3.60;99.90;;;;;;5000466;28;20232;-67
2022/02/05 06:15:54;;;;;;;8.20;7.60;;;3.70;99.90;;;;;;4995881;28;20243;-66
2022/02/05 06:18:20;;;;;;;8.13;7.63;;;3.70;99.90;;;;;;5008841;28;20200;-67
2022/02/05 06:20:46;;;;;;;8.60;7.80;;;3.70;99.90;;;;;;5015173;28;20264;-67
2022/02/05 06:23:11;;;;;;;12.67;7.10;;;3.60;99.90;;;;;;5003720;28;20561;-67
2022/02/05 06:25:41;;;;;;;8.23;7.77;;;3.50;99.90;;;;;;5002574;28;20306;-67
2022/02/05 06:28:06;;;;;;;9.60;8.63;;;3.50;99.90;;;;;;5015156;28;20219;-67
2022/02/05 06:30:32;;;;;;;9.33;8.53;;;3.50;99.90;;;;;;5009157;28;20216;-66
2022/02/05 06:32:58;;;;;;;8.23;7.80;;;3.50;99.90;;;;;;4995166;28;20205;-66
2022/02/05 06:35:23;;;;;;;9.00;8.40;;;3.50;99.90;;;;;;4999250;28;20589;-65
2022/02/05 06:37:49;;;;;;;8.33;7.63;;;3.50;99.90;;;;;;5014762;28;20184;-67
2022/02/05 06:40:15;;;;;;;7.77;7.17;;;3.50;99.90;;;;;;5012477;28;20638;-67
2022/02/05 06:42:45;;;;;;;9.07;8.27;;;3.50;99.90;;;;;;4994949;28;20189;-68
2022/02/05 06:45:11;;;;;;;8.57;7.87;;;3.50;99.90;;;;;;4996099;28;20646;-67
2022/02/05 06:47:37;;;;;;;8.20;7.40;;;3.40;99.90;;;;;;5014715;28;20175;-67
2022/02/05 06:50:03;;;;;;;8.77;7.50;;;3.40;99.90;;;;;;4995585;28;20189;-67
2022/02/05 06:52:29;;;;;;;9.90;8.07;;;3.30;99.90;;;;;;4994804;28;20211;-67
2022/02/05 06:54:55;;;;;;;8.93;8.00;;;3.30;99.90;;;;;;5012459;28;20271;-67
2022/02/05 06:57:20;;;;;;;8.70;8.07;;;3.30;99.90;;;;;;5014677;28;20227;-66
2022/02/05 06:59:56;;;;;;;9.73;8.87;;;3.20;99.90;;;;;;4998360;28;20219;-67
2022/02/05 07:02:22;;;;;;;9.30;8.43;;;3.20;99.90;;;;;;4994723;28;20490;-67
2022/02/05 07:04:48;;;;;;;8.97;8.17;;;3.20;99.90;;;;;;5010196;28;20576;-65
2022/02/05 07:07:13;;;;;;;8.70;7.90;;;3.10;99.90;;;;;;5010904;28;20259;-66
2022/02/05 07:09:39;;;;;;;10.57;8.23;;;3.10;99.90;;;;;;4994827;28;20181;-66
2022/02/05 07:12:10;;;;;;;9.73;8.63;;;3.10;99.90;;;;;;4994952;28;20200;-67
2022/02/05 07:14:44;;;;;;;10.10;9.17;;;3.10;99.90;;;;;;5014501;28;20252;-66
2022/02/05 07:18:04;;;;;;;10.90;10.20;;;3.20;99.90;;;;;;5013122;28;20588;-67
2022/02/05 07:20:19;;;;;;;11.30;9.93;;;3.20;99.90;;;;;;4996540;28;20562;-67
2022/02/05 07:31:13;;;;;;;13.00;9.50;;;3.40;99.90;;;;;;5006591;28;20214;-68
2022/02/05 07:33:39;;;;;;;10.53;9.93;;;3.40;99.90;;;;;;5014161;28;20192;-66
2022/02/05 07:36:05;;;;;;;9.83;8.97;;;3.50;99.90;;;;;;5002035;28;20242;-66
2022/02/05 07:38:31;;;;;;;9.30;8.70;;;3.50;99.90;;;;;;4994225;28;20196;-68
2022/02/05 07:40:56;;;;;;;9.10;8.20;;;3.50;99.90;;;;;;5004190;28;20216;-68
2022/02/05 07:43:27;;;;;;;8.73;7.90;;;3.60;99.90;;;;;;5013626;28;20199;-67
2022/02/05 07:45:54;;;;;;;9.00;8.10;;;3.60;99.90;;;;;;5004623;28;20287;-67
2022/02/05 07:48:19;;;;;;;8.70;7.80;;;3.60;99.90;;;;;;4994426;28;20169;-68
2022/02/05 07:50:45;;;;;;;10.53;7.80;;;3.70;99.90;;;;;;5002277;28;20202;-68
2022/02/05 07:53:10;;;;;;;11.30;8.17;;;3.70;99.90;;;;;;5013290;28;20218;-67
2022/02/05 07:55:36;;;;;;;9.23;8.23;;;3.70;99.90;;;;;;5010404;28;20189;-66
2022/02/05 07:58:02;;;;;;;11.57;8.77;;;3.70;99.90;;;;;;4996920;28;20176;-67
2022/02/05 08:00:27;;;;;;;9.40;8.13;;;3.80;99.90;;;;;;5016336;28;20164;-68
2022/02/05 08:02:56;;;;;;;9.50;8.60;;;3.80;99.90;;;;;;5015671;28;20211;-68
2022/02/05 08:05:22;;;;;;;11.47;9.93;;;3.80;99.90;;;;;;4996601;28;20295;-67
2022/02/05 08:07:48;;;;;;;13.13;9.57;;;3.80;99.90;;;;;;4997325;28;20189;-68
2022/02/05 08:10:15;;;;;;;9.03;8.33;;;3.90;99.90;;;;;;5014336;28;20176;-68
2022/02/05 08:12:48;;;;;;;10.77;8.70;;;4.10;99.90;;;;;;5015076;28;20199;-68
2022/02/05 08:15:17;;;;;;;11.17;8.70;;;4.40;99.90;;;;;;4995032;28;20196;-68
2022/02/05 08:17:43;;;;;;;11.47;8.10;;;4.70;99.90;;;;;;4992997;28;20208;-66
2022/02/05 08:20:09;;;;;;;9.23;7.97;;;4.90;99.90;;;;;;5007377;28;20297;-65
2022/02/05 08:22:35;;;;;;;7.87;7.33;;;5.20;99.90;;;;;;5013429;28;20295;-67
2022/02/05 08:25:00;;;;;;;8.53;7.73;;;5.30;99.90;;;;;;4998564;28;20209;-65
2022/02/05 08:27:27;;;;;;;7.30;6.70;;;5.50;99.90;;;;;;5002985;28;20172;-67
2022/02/05 08:32:19;;;;;;;13.97;7.67;;;5.80;99.90;;;;;;5004175;28;20239;-67
2022/02/05 08:34:45;;;;;;;12.00;8.27;;;5.80;99.90;;;;;;5004758;28;20172;-67
2022/02/05 08:37:11;;;;;;;8.77;7.93;;;5.90;99.90;;;;;;5011231;28;20187;-67
2022/02/05 08:39:37;;;;;;;9.07;8.17;;;5.80;99.90;;;;;;5007399;28;20213;-68
2022/02/05 08:42:03;;;;;;;10.20;7.60;;;5.80;99.90;;;;;;5002834;28;20271;-68
2022/02/05 08:44:30;;;;;;;8.07;7.07;;;5.80;99.90;;;;;;5012817;28;20552;-68
2022/02/05 08:46:55;;;;;;;8.80;7.87;;;6.00;99.90;;;;;;5012450;28;20692;-68
2022/02/05 08:49:21;;;;;;;8.40;7.60;;;6.10;99.90;;;;;;5012536;28;20176;-68
2022/02/05 08:51:47;;;;;;;8.33;7.53;;;6.20;99.90;;;;;;5012303;28;20229;-66
2022/02/05 08:54:12;;;;;;;8.87;8.27;;;6.20;99.90;;;;;;5010123;28;20180;-68
2022/02/05 08:56:38;;;;;;;8.93;8.20;;;6.30;99.90;;;;;;5010719;28;20527;-68
2022/02/05 08:59:04;;;;;;;8.27;7.47;;;6.40;99.90;;;;;;5006254;28;20250;-67
2022/02/05 09:04:33;;;;;;;8.67;7.20;;;6.80;99.90;;;;;;4992755;28;20180;-66
2022/02/05 09:06:59;;;;;;;7.33;6.70;;;7.10;99.90;;;;;;4992260;28;20196;-67
2022/02/05 09:16:52;;;;;;;7.37;6.53;;;7.50;99.90;;;;;;5003180;28;20195;-66
2022/02/05 09:19:18;;;;;;;11.93;7.50;;;7.60;99.90;;;;;;5011876;28;20219;-66
2022/02/05 09:21:44;;;;;;;9.00;7.30;;;7.60;99.90;;;;;;5000401;28;20172;-67
2022/02/05 09:24:10;;;;;;;7.80;7.00;;;7.60;99.90;;;;;;4991971;28;20555;-66
2022/02/05 09:26:44;;;;;;;8.17;7.37;;;7.80;99.90;;;;;;4993579;28;20642;-68
2022/02/05 09:29:19;;;;;;;13.03;7.03;;;7.60;99.90;;;;;;4991755;28;20173;-68
2022/02/05 09:31:45;;;;;;;13.10;9.13;;;7.60;99.90;;;;;;4995481;28;20183;-67
2022/02/05 09:34:11;;;;;;;8.47;7.77;;;7.70;99.90;;;;;;4993943;28;20246;-67
2022/02/05 09:36:39;;;;;;;8.50;7.70;;;7.70;99.90;;;;;;5008921;28;20176;-66
2022/02/05 09:39:10;;;;;;;11.70;8.50;;;7.50;99.90;;;;;;4994177;28;20227;-67
2022/02/05 09:41:38;;;;;;;10.77;8.03;;;7.60;99.90;;;;;;5002910;28;20212;-65
2022/02/05 09:44:05;;;;;;;11.30;7.70;;;7.60;99.90;;;;;;4992001;28;20758;-65
2022/02/05 09:46:31;;;;;;;9.40;7.80;;;7.70;99.90;;;;;;4998858;28;20594;-67
2022/02/05 09:48:57;;;;;;;9.57;7.40;;;7.80;99.90;;;;;;5001737;28;20199;-67
2022/02/05 09:51:30;;;;;;;11.57;7.37;;;7.70;99.90;;;;;;5011351;28;20646;-66
2022/02/05 09:56:26;;;;;;;8.00;7.23;;;7.90;99.90;;;;;;4989746;28;20213;-66
2022/02/05 09:58:53;;;;;;;8.37;7.53;;;7.90;99.90;;;;;;4974913;28;20209;-66
2022/02/05 10:01:25;;;;;;;9.63;7.60;;;7.80;99.90;;;;;;4991102;28;20235;-66
2022/02/05 10:03:52;;;;;;;9.10;8.20;;;7.60;99.90;;;;;;4991158;28;20211;-65
2022/02/05 10:06:24;;;;;;;10.73;9.67;;;7.60;99.90;;;;;;4991075;28;20188;-67
2022/02/05 10:08:56;;;;;;;8.90;8.20;;;7.30;99.90;;;;;;4991144;28;20185;-66
2022/02/05 10:11:21;;;;;;;8.80;7.17;;;7.10;99.90;;;;;;4990925;28;20195;-66
2022/02/05 10:13:47;;;;;;;9.37;8.03;;;6.90;99.90;;;;;;4991125;28;20265;-66
2022/02/05 10:16:13;;;;;;;15.27;8.07;;;6.80;99.90;;;;;;4991744;28;20181;-66
2022/02/05 10:18:43;;;;;;;9.67;9.00;;;6.80;99.90;;;;;;4992223;28;20209;-66
2022/02/05 10:21:19;;;;;;;10.97;8.87;;;6.90;99.90;;;;;;4991569;28;20169;-66
2022/02/05 10:24:14;;;;;;;9.43;8.73;;;7.10;99.90;;;;;;4991738;28;20250;-66
2022/02/05 10:26:43;;;;;;;8.07;7.23;;;7.20;99.90;;;;;;4983372;28;20189;-66
2022/02/05 10:29:10;;;;;;;8.60;7.80;;;7.30;99.90;;;;;;4988249;28;20200;-66
2022/02/05 10:31:54;;;;;;;11.73;7.30;;;7.30;99.90;;;;;;4990530;28;20176;-66
2022/02/05 10:34:20;;;;;;;8.13;7.37;;;7.30;99.90;;;;;;4992363;28;20235;-66
2022/02/05 10:36:47;;;;;;;9.47;7.50;;;7.20;99.90;;;;;;4992460;28;20177;-66
2022/02/05 10:44:35;;;;;;;8.97;7.77;;;7.10;99.90;;;;;;4994886;28;20188;-66
2022/02/05 10:47:02;;;;;;;10.63;9.73;;;7.00;99.90;;;;;;4995197;28;20260;-66
2022/02/05 10:49:48;;;;;;;11.43;8.53;;;6.80;99.90;;;;;;4995201;28;20647;-65
2022/02/05 10:52:33;;;;;;;15.00;11.73;;;6.60;99.90;;;;;;4994792;28;20183;-66
2022/02/05 10:57:36;;;;;;;19.23;11.93;;;6.50;99.90;;;;;;4994973;28;20169;-65
2022/02/05 11:05:39;;;;;;;13.80;11.47;;;6.50;99.90;;;;;;4995281;28;20187;-66
2022/02/05 11:08:05;;;;;;;11.23;10.13;;;6.60;99.90;;;;;;4993866;28;20255;-66
2022/02/05 11:13:54;;;;;;;10.40;9.60;;;7.10;99.90;;;;;;4994250;28;20189;-65
2022/02/05 11:19:02;;;;;;;10.97;8.13;;;8.60;99.90;;;;;;4993872;28;20702;-66
2022/02/05 11:21:30;;;;;;;15.53;10.67;;;9.00;99.90;;;;;;4992236;28;20180;-65
2022/02/05 11:24:03;;;;;;;14.43;10.03;;;9.10;99.90;;;;;;4994023;28;20228;-65
2022/02/05 11:26:30;;;;;;;9.90;8.40;;;9.10;99.90;;;;;;4994595;28;20208;-66
2022/02/05 11:29:02;;;;;;;8.73;7.63;;;9.40;99.90;;;;;;4976709;28;20212;-65
2022/02/05 11:31:38;;;;;;;7.30;6.70;;;9.40;99.90;;;;;;4994511;28;20181;-66
2022/02/05 11:34:28;;;;;;;7.90;7.10;;;9.30;99.90;;;;;;4993871;28;20567;-65
2022/02/05 11:37:01;;;;;;;8.20;7.43;;;8.90;99.90;;;;;;4994398;28;20188;-66
2022/02/05 11:39:27;;;;;;;8.43;7.53;;;9.00;99.90;;;;;;4994024;28;20262;-65
2022/02/05 11:41:53;;;;;;;7.40;6.83;;;8.80;99.90;;;;;;4993954;28;20255;-65
2022/02/05 11:44:33;;;;;;;8.37;7.50;;;8.90;99.90;;;;;;4993585;28;20241;-65
2022/02/05 11:47:11;;;;;;;8.87;7.97;;;8.80;99.90;;;;;;4992601;28;20169;-65
2022/02/05 11:49:52;;;;;;;8.97;8.07;;;8.70;99.90;;;;;;4993970;28;20180;-66
2022/02/05 11:52:36;;;;;;;10.13;9.20;;;8.60;99.90;;;;;;4993511;28;20180;-65
2022/02/05 11:55:26;;;;;;;10.17;8.90;;;8.30;99.90;;;;;;4974335;28;20564;-66
2022/02/05 11:57:55;;;;;;;9.40;8.60;;;8.00;99.90;;;;;;4991914;28;20192;-66
2022/02/05 12:00:28;;;;;;;8.90;8.00;;;7.80;99.90;;;;;;4993997;28;20211;-65
2022/02/05 12:03:01;;;;;;;7.50;6.90;;;8.00;99.90;;;;;;4993240;28;20255;-66
2022/02/05 12:05:38;;;;;;;7.90;6.97;;;8.50;99.90;;;;;;4994023;28;20227;-66
2022/02/05 12:08:03;;;;;;;7.70;7.10;;;8.80;99.90;;;;;;4993681;28;20242;-65
2022/02/05 12:10:41;;;;;;;9.17;7.17;;;9.00;99.90;;;;;;4992449;28;20209;-66
2022/02/05 12:13:13;;;;;;;7.57;7.00;;;9.10;99.90;;;;;;4993169;28;20578;-66
2022/02/05 12:19:15;;;;;;;8.10;7.30;;;8.90;99.90;;;;;;4972202;28;20744;-66
2022/02/05 12:21:51;;;;;;;10.13;8.13;;;8.80;99.90;;;;;;4980331;28;20543;-66
2022/02/05 12:26:59;;;;;;;8.37;7.53;;;8.70;99.90;;;;;;4993118;28;20574;-65
2022/02/05 12:29:27;;;;;;;7.40;6.90;;;8.80;99.90;;;;;;4993245;28;20556;-66
2022/02/05 12:31:53;;;;;;;10.63;9.33;;;8.80;99.90;;;;;;4991574;28;20239;-66
2022/02/05 12:34:18;;;;;;;10.37;9.30;;;8.80;99.90;;;;;;4993084;28;20283;-66
2022/02/05 12:36:52;;;;;;;8.07;6.97;;;8.70;99.90;;;;;;4991579;28;20181;-66
2022/02/05 12:39:23;;;;;;;7.70;6.97;;;8.80;99.90;;;;;;4993069;28;20850;-66
2022/02/05 12:41:52;;;;;;;6.97;6.20;;;8.90;99.90;;;;;;4992722;28;20187;-66
2022/02/05 12:44:23;;;;;;;6.50;5.90;;;9.30;99.90;;;;;;4992727;28;20284;-66
2022/02/05 12:46:59;;;;;;;6.30;5.80;;;10.10;99.90;;;;;;4991411;28;20611;-66
2022/02/05 12:49:30;;;;;;;6.77;6.27;;;10.50;99.90;;;;;;4991776;28;20537;-66
2022/02/05 12:51:58;;;;;;;7.00;6.20;;;10.30;99.90;;;;;;4992557;28;20184;-66
2022/02/05 12:54:27;;;;;;;7.60;6.30;;;10.30;99.90;;;;;;4991258;28;20306;-66
2022/02/05 12:56:55;;;;;;;6.90;6.40;;;10.40;99.90;;;;;;4991524;28;20560;-66
2022/02/05 12:59:27;;;;;;;9.33;7.00;;;10.40;99.90;;;;;;4991107;28;20284;-66
2022/02/05 13:02:12;;;;;;;8.47;7.63;;;10.40;99.90;;;;;;4992540;28;20180;-66
2022/02/05 13:04:42;;;;;;;7.17;6.43;;;10.00;99.90;;;;;;4991968;28;20188;-65
2022/02/05 13:07:21;;;;;;;7.57;6.97;;;9.40;99.90;;;;;;4992512;28;20179;-65
2022/02/05 13:10:06;;;;;;;7.83;7.23;;;8.90;99.90;;;;;;4992457;28;20555;-65
2022/02/05 13:12:38;;;;;;;7.57;6.90;;;8.40;99.90;;;;;;4990029;28;20200;-65
2022/02/05 13:15:23;;;;;;;7.53;7.03;;;8.20;99.90;;;;;;4991105;28;20198;-66
2022/02/05 13:18:14;;;;;;;7.30;6.60;;;7.90;99.90;;;;;;4992492;28;20177;-65
2022/02/05 13:29:20;;;;;;;7.63;6.93;;;7.50;99.90;;;;;;4991897;28;20550;-64
2022/02/05 13:34:32;;;;;;;10.63;7.67;;;7.50;99.90;;;;;;4992227;28;20666;-66
2022/02/05 13:37:10;;;;;;;7.60;6.90;;;7.50;99.90;;;;;;4992291;28;20181;-66
2022/02/05 13:42:14;;;;;;;7.60;7.00;;;8.00;99.90;;;;;;4992376;28;20255;-66
2022/02/05 13:45:01;;;;;;;6.73;6.17;;;8.30;99.90;;;;;;4992183;28;20168;-66
2022/02/05 13:47:35;;;;;;;6.53;6.13;;;8.50;99.90;;;;;;4992122;28;20179;-66
2022/02/05 13:50:12;;;;;;;8.63;7.60;;;8.60;99.90;;;;;;4992134;28;20176;-66
2022/02/05 13:52:48;;;;;;;8.13;7.47;;;8.40;99.90;;;;;;4991739;28;20216;-66
2022/02/05 13:55:29;;;;;;;7.97;6.47;;;8.30;99.90;;;;;;4992019;28;20190;-66
2022/02/05 13:58:01;;;;;;;7.20;6.60;;;8.60;99.90;;;;;;4991957;28;20168;-66
2022/02/05 14:00:56;;;;;;;6.50;6.07;;;8.90;99.90;;;;;;4992056;28;20287;-65
2022/02/05 14:03:29;;;;;;;6.50;6.07;;;9.20;99.90;;;;;;4983197;28;20781;-65
2022/02/05 14:06:01;;;;;;;7.00;6.30;;;9.60;99.90;;;;;;4990731;28;20511;-65
2022/02/05 14:08:45;;;;;;;7.73;7.23;;;10.00;99.90;;;;;;4992053;28;20177;-66
2022/02/05 14:11:13;;;;;;;8.80;6.10;;;10.00;99.90;;;;;;4990730;28;20176;-65
2022/02/05 14:13:40;;;;;;;6.60;6.10;;;9.70;99.90;;;;;;4991335;28;20227;-66
2022/02/05 14:16:07;;;;;;;6.57;6.03;;;9.50;99.90;;;;;;4993898;28;20538;-65
2022/02/05 14:18:50;;;;;;;9.07;6.00;;;9.40;99.90;;;;;;4995666;28;20591;-65
2022/02/05 14:21:15;;;;;;;9.50;8.60;;;9.20;99.90;;;;;;4995726;28;20192;-66
2022/02/05 14:23:53;;;;;;;7.20;6.70;;;9.10;99.90;;;;;;4993555;28;20220;-67
2022/02/05 14:26:32;;;;;;;6.97;6.30;;;9.20;99.90;;;;;;4995757;28;20597;-66
2022/02/05 14:29:01;;;;;;;6.50;6.00;;;9.10;99.90;;;;;;4994606;28;20571;-66
2022/02/05 14:31:33;;;;;;;7.00;6.30;;;9.20;99.90;;;;;;4988426;28;20529;-66
2022/02/05 14:42:02;;;;;;;6.27;5.77;;;10.40;99.90;;;;;;4995327;28;20280;-65
2022/02/05 14:44:27;;;;;;;7.50;6.20;;;10.30;99.90;;;;;;4994332;28;20670;-66
2022/02/05 14:46:53;;;;;;;6.57;6.03;;;10.30;99.90;;;;;;4995270;28;20187;-65
2022/02/05 14:49:19;;;;;;;7.40;6.13;;;10.30;99.90;;;;;;4994499;28;20185;-66
2022/02/05 14:51:45;;;;;;;7.07;6.43;;;10.20;99.90;;;;;;4993576;28;20183;-66
2022/02/05 14:54:11;;;;;;;11.20;6.87;;;10.00;99.90;;;;;;4993132;28;20251;-66
2022/02/05 14:56:37;;;;;;;7.00;6.50;;;9.90;99.90;;;;;;4994834;28;20177;-66
2022/02/05 14:59:04;;;;;;;6.63;6.13;;;9.90;99.90;;;;;;4994798;28;20670;-66
2022/02/05 15:01:30;;;;;;;6.97;6.47;;;10.00;99.90;;;;;;4993203;28;20177;-66
2022/02/05 15:03:57;;;;;;;9.53;7.80;;;9.70;99.90;;;;;;4994322;28;20560;-66
2022/02/05 15:06:26;;;;;;;7.17;6.57;;;9.50;99.90;;;;;;4994619;28;20662;-66
2022/02/05 15:08:54;;;;;;;8.43;7.63;;;9.40;99.90;;;;;;4994641;28;20197;-66
2022/02/05 15:11:20;;;;;;;8.30;7.37;;;9.30;99.90;;;;;;4994471;28;20173;-66
2022/02/05 15:13:47;;;;;;;8.07;6.87;;;9.40;99.90;;;;;;4994299;28;20193;-66
2022/02/05 15:16:16;;;;;;;9.47;8.47;;;9.60;99.90;;;;;;4993293;28;20176;-66
2022/02/05 15:18:48;;;;;;;7.60;6.90;;;9.60;99.90;;;;;;4994635;28;20199;-66
2022/02/05 15:21:13;;;;;;;7.17;6.63;;;9.50;99.90;;;;;;4994438;28;20287;-66
2022/02/05 15:23:39;;;;;;;7.53;7.00;;;9.50;99.90;;;;;;4994049;28;20275;-66
2022/02/05 15:26:06;;;;;;;6.53;6.13;;;9.60;99.90;;;;;;4994297;28;20169;-66
2022/02/05 15:28:32;;;;;;;8.33;7.53;;;9.40;99.90;;;;;;4993878;28;20572;-66
2022/02/05 15:30:58;;;;;;;6.77;6.37;;;9.30;99.90;;;;;;4994422;28;20181;-67
2022/02/05 15:33:25;;;;;;;6.63;5.70;;;9.20;99.90;;;;;;4993993;28;20201;-66
2022/02/05 15:35:54;;;;;;;7.67;6.23;;;9.00;99.90;;;;;;4994284;28;20299;-66
2022/02/05 15:38:29;;;;;;;6.63;6.13;;;8.90;99.90;;;;;;4993085;28;20173;-67
2022/02/05 15:46:09;;;;;;;6.93;6.33;;;8.50;99.90;;;;;;4994245;28;20180;-66
2022/02/05 15:48:34;;;;;;;6.63;6.13;;;8.30;99.90;;;;;;4992930;28;20211;-66
2022/02/05 15:51:01;;;;;;;6.17;5.70;;;8.30;99.90;;;;;;4993517;28;20600;-66
2022/02/05 15:53:28;;;;;;;6.00;5.70;;;8.20;99.90;;;;;;4993497;28;20296;-66
2022/02/05 15:55:54;;;;;;;6.57;5.97;;;8.20;99.90;;;;;;5015546;23;20315;-66
2022/02/05 15:58:22;;;;;;;7.00;6.37;;;8.10;99.90;;;;;;4983448;28;20261;-65
2022/02/05 16:00:48;;;;;;;16.30;11.83;;;8.10;99.90;;;;;;4974235;28;20165;-66
2022/02/05 16:03:14;;;;;;;11.97;9.00;;;8.00;99.90;;;;;;4982394;28;20397;-65
2022/02/05 16:05:41;;;;;;;10.87;9.20;;;8.10;99.90;;;;;;4993598;28;20189;-65
2022/02/05 16:08:06;;;;;;;7.17;6.57;;;8.10;99.90;;;;;;4986362;28;20686;-65
2022/02/05 16:10:32;;;;;;;8.27;7.30;;;8.10;99.90;;;;;;4974513;28;20177;-65
2022/02/05 16:12:58;;;;;;;7.30;6.87;;;8.00;99.90;;;;;;4978783;28;20177;-65
2022/02/05 16:15:24;;;;;;;7.97;7.20;;;8.00;99.90;;;;;;4993366;28;20197;-65
2022/02/05 16:17:51;;;;;;;8.47;7.50;;;8.00;99.90;;;;;;4989582;28;20186;-65
2022/02/05 16:20:20;;;;;;;7.77;6.93;;;7.90;99.90;;;;;;4974446;28;20296;-66
2022/02/05 16:22:46;;;;;;;11.83;6.80;;;7.90;99.90;;;;;;4975890;28;20704;-64